sensor_id;sensor_type;location;lat;lon;timestamp;temperature;humidity
41058;DHT22;66768;48.884;2.258;2023-02-23T00:00:32;10.80;99.90
41058;DHT22;66768;48.884;2.258;2023-02-23T00:03:01;10.80;99.90
41058;DHT22;66768;48.884;2.258;2023-02-23T00:05:31;10.80;99.90
41058;DHT22;66768;48.884;2.258;2023-02-23T00:08:00;10.70;99.90
41058;DHT22;66768;48.884;2.258;2023-02-23T00:10:27;10.80;99.90
41058;DHT22;66768;48.884;2.258;2023-02-23T00:12:56;10.70;99.90
41058;DHT22;66768;48.884;2.258;2023-02-23T00:15:24;10.70;99.90
41058;DHT22;66768;48.884;2.258;2023-02-23T00:17:53;10.80;99.90
41058;DHT22;66768;48.884;2.258;2023-02-23T00:20:21;10.70;99.90
41058;DHT22;66768;48.884;2.258;2023-02-23T00:22:53;10.60;99.90
41058;DHT22;66768;48.884;2.258;2023-02-23T00:25:21;10.70;99.90
41058;DHT22;66768;48.884;2.258;2023-02-23T00:27:48;10.60;99.90
41058;DHT22;66768;48.884;2.258;2023-02-23T00:30:18;10.60;99.90
41058;DHT22;66768;48.884;2.258;2023-02-23T00:32:45;10.60;99.90
41058;DHT22;66768;48.884;2.258;2023-02-23T00:35:14;10.60;99.90
41058;DHT22;66768;48.884;2.258;2023-02-23T00:37:44;10.60;99.90
41058;DHT22;66768;48.884;2.258;2023-02-23T00:40:13;10.60;99.90
41058;DHT22;66768;48.884;2.258;2023-02-23T00:42:42;10.60;99.90
41058;DHT22;66768;48.884;2.258;2023-02-23T00:45:10;10.70;99.90
41058;DHT22;66768;48.884;2.258;2023-02-23T00:47:38;10.70;99.90
41058;DHT22;66768;48.884;2.258;2023-02-23T00:50:06;10.70;99.90
41058;DHT22;66768;48.884;2.258;2023-02-23T00:52:38;10.70;99.90
41058;DHT22;66768;48.884;2.258;2023-02-23T00:55:06;10.60;99.90
41058;DHT22;66768;48.884;2.258;2023-02-23T00:57:34;10.60;99.90
41058;DHT22;66768;48.884;2.258;2023-02-23T01:00:01;10.60;99.90
41058;DHT22;66768;48.884;2.258;2023-02-23T01:02:37;10.50;99.90
41058;DHT22;66768;48.884;2.258;2023-02-23T01:05:05;10.60;99.90
41058;DHT22;66768;48.884;2.258;2023-02-23T01:07:32;10.60;99.90
41058;DHT22;66768;48.884;2.258;2023-02-23T01:10:00;10.50;99.90
41058;DHT22;66768;48.884;2.258;2023-02-23T01:12:32;10.50;99.90
41058;DHT22;66768;48.884;2.258;2023-02-23T01:14:59;10.50;99.90
41058;DHT22;66768;48.884;2.258;2023-02-23T01:17:28;10.50;99.90
41058;DHT22;66768;48.884;2.258;2023-02-23T01:19:55;10.60;99.90
41058;DHT22;66768;48.884;2.258;2023-02-23T01:22:22;10.50;99.90
41058;DHT22;66768;48.884;2.258;2023-02-23T01:24:49;10.50;99.90
41058;DHT22;66768;48.884;2.258;2023-02-23T01:27:17;10.50;99.90
41058;DHT22;66768;48.884;2.258;2023-02-23T01:29:44;10.50;99.90
41058;DHT22;66768;48.884;2.258;2023-02-23T01:32:11;10.50;99.90
41058;DHT22;66768;48.884;2.258;2023-02-23T01:34:38;10.60;99.90
41058;DHT22;66768;48.884;2.258;2023-02-23T01:37:05;10.60;99.90
41058;DHT22;66768;48.884;2.258;2023-02-23T01:39:33;10.60;99.90
41058;DHT22;66768;48.884;2.258;2023-02-23T01:42:00;10.60;99.90
41058;DHT22;66768;48.884;2.258;2023-02-23T01:47:40;10.60;99.90
41058;DHT22;66768;48.884;2.258;2023-02-23T01:50:08;10.50;99.90
41058;DHT22;66768;48.884;2.258;2023-02-23T01:52:36;10.50;99.90
41058;DHT22;66768;48.884;2.258;2023-02-23T01:55:05;10.50;99.90
41058;DHT22;66768;48.884;2.258;2023-02-23T01:57:38;10.50;99.90
41058;DHT22;66768;48.884;2.258;2023-02-23T02:00:08;10.50;99.90
41058;DHT22;66768;48.884;2.258;2023-02-23T02:02:39;10.50;99.90
41058;DHT22;66768;48.884;2.258;2023-02-23T02:05:07;10.50;99.90
41058;DHT22;66768;48.884;2.258;2023-02-23T02:07:41;10.40;99.90
41058;DHT22;66768;48.884;2.258;2023-02-23T02:10:11;10.40;99.90
41058;DHT22;66768;48.884;2.258;2023-02-23T02:12:58;10.30;99.90
41058;DHT22;66768;48.884;2.258;2023-02-23T02:15:28;10.30;99.90
41058;DHT22;66768;48.884;2.258;2023-02-23T02:18:03;10.40;99.90
41058;DHT22;66768;48.884;2.258;2023-02-23T02:20:55;10.30;99.90
41058;DHT22;66768;48.884;2.258;2023-02-23T02:24:02;10.20;99.90
41058;DHT22;66768;48.884;2.258;2023-02-23T02:26:42;10.20;99.90
41058;DHT22;66768;48.884;2.258;2023-02-23T02:29:45;10.20;99.90
41058;DHT22;66768;48.884;2.258;2023-02-23T02:33:01;10.30;99.90
41058;DHT22;66768;48.884;2.258;2023-02-23T02:36:00;10.20;99.90
41058;DHT22;66768;48.884;2.258;2023-02-23T02:38:43;10.20;99.90
41058;DHT22;66768;48.884;2.258;2023-02-23T02:41:24;10.20;99.90
41058;DHT22;66768;48.884;2.258;2023-02-23T02:43:59;10.20;99.90
41058;DHT22;66768;48.884;2.258;2023-02-23T02:46:31;10.10;99.90
41058;DHT22;66768;48.884;2.258;2023-02-23T02:49:05;10.10;99.90
41058;DHT22;66768;48.884;2.258;2023-02-23T02:51:39;10.10;99.90
41058;DHT22;66768;48.884;2.258;2023-02-23T02:54:13;10.10;99.90
41058;DHT22;66768;48.884;2.258;2023-02-23T02:56:46;10.10;99.90
41058;DHT22;66768;48.884;2.258;2023-02-23T02:59:16;10.10;99.90
41058;DHT22;66768;48.884;2.258;2023-02-23T03:02:01;10.10;99.90
41058;DHT22;66768;48.884;2.258;2023-02-23T03:04:47;10.00;99.90
41058;DHT22;66768;48.884;2.258;2023-02-23T03:07:35;10.10;99.90
41058;DHT22;66768;48.884;2.258;2023-02-23T03:10:32;10.10;99.90
41058;DHT22;66768;48.884;2.258;2023-02-23T03:13:30;10.00;99.90
41058;DHT22;66768;48.884;2.258;2023-02-23T03:16:25;10.00;99.90
41058;DHT22;66768;48.884;2.258;2023-02-23T03:19:16;10.00;99.90
41058;DHT22;66768;48.884;2.258;2023-02-23T03:22:08;10.00;99.90
41058;DHT22;66768;48.884;2.258;2023-02-23T03:24:59;10.00;99.90
41058;DHT22;66768;48.884;2.258;2023-02-23T03:27:51;10.10;99.90
41058;DHT22;66768;48.884;2.258;2023-02-23T03:30:42;10.10;99.90
41058;DHT22;66768;48.884;2.258;2023-02-23T03:33:35;10.10;99.90
41058;DHT22;66768;48.884;2.258;2023-02-23T03:36:25;10.10;99.90
41058;DHT22;66768;48.884;2.258;2023-02-23T03:39:17;10.20;99.90
41058;DHT22;66768;48.884;2.258;2023-02-23T03:42:06;10.10;99.90
41058;DHT22;66768;48.884;2.258;2023-02-23T03:44:54;10.00;99.90
41058;DHT22;66768;48.884;2.258;2023-02-23T03:47:41;10.00;99.90
41058;DHT22;66768;48.884;2.258;2023-02-23T03:50:30;10.00;99.90
41058;DHT22;66768;48.884;2.258;2023-02-23T03:53:20;10.00;99.90
41058;DHT22;66768;48.884;2.258;2023-02-23T03:56:07;10.00;99.90
41058;DHT22;66768;48.884;2.258;2023-02-23T03:58:57;10.00;99.90
41058;DHT22;66768;48.884;2.258;2023-02-23T04:01:45;10.00;99.90
41058;DHT22;66768;48.884;2.258;2023-02-23T04:04:32;10.00;99.90
41058;DHT22;66768;48.884;2.258;2023-02-23T04:07:18;9.90;99.90
41058;DHT22;66768;48.884;2.258;2023-02-23T04:10:04;9.90;99.90
41058;DHT22;66768;48.884;2.258;2023-02-23T04:12:53;9.80;99.90
41058;DHT22;66768;48.884;2.258;2023-02-23T04:15:41;9.80;99.90
41058;DHT22;66768;48.884;2.258;2023-02-23T04:18:13;9.80;99.90
41058;DHT22;66768;48.884;2.258;2023-02-23T04:20:40;9.80;99.90
41058;DHT22;66768;48.884;2.258;2023-02-23T04:23:07;9.80;99.90
41058;DHT22;66768;48.884;2.258;2023-02-23T04:25:34;9.90;99.90
41058;DHT22;66768;48.884;2.258;2023-02-23T04:28:01;9.80;99.90
41058;DHT22;66768;48.884;2.258;2023-02-23T04:30:28;9.80;99.90
41058;DHT22;66768;48.884;2.258;2023-02-23T04:32:55;9.80;99.90
41058;DHT22;66768;48.884;2.258;2023-02-23T04:35:25;9.80;99.90
41058;DHT22;66768;48.884;2.258;2023-02-23T04:37:54;9.80;99.90
41058;DHT22;66768;48.884;2.258;2023-02-23T04:40:21;9.90;99.90
41058;DHT22;66768;48.884;2.258;2023-02-23T04:42:48;9.80;99.90
41058;DHT22;66768;48.884;2.258;2023-02-23T04:45:15;9.70;99.90
41058;DHT22;66768;48.884;2.258;2023-02-23T04:47:42;9.70;99.90
41058;DHT22;66768;48.884;2.258;2023-02-23T04:50:10;9.70;99.90
41058;DHT22;66768;48.884;2.258;2023-02-23T04:52:38;9.70;99.90
41058;DHT22;66768;48.884;2.258;2023-02-23T04:55:06;9.60;99.90
41058;DHT22;66768;48.884;2.258;2023-02-23T04:57:34;9.60;99.90
41058;DHT22;66768;48.884;2.258;2023-02-23T05:00:01;9.60;99.90
41058;DHT22;66768;48.884;2.258;2023-02-23T05:02:29;9.60;99.90
41058;DHT22;66768;48.884;2.258;2023-02-23T05:04:56;9.60;99.90
41058;DHT22;66768;48.884;2.258;2023-02-23T05:07:23;9.50;99.90
41058;DHT22;66768;48.884;2.258;2023-02-23T05:09:51;9.60;99.90
41058;DHT22;66768;48.884;2.258;2023-02-23T05:12:18;9.50;99.90
41058;DHT22;66768;48.884;2.258;2023-02-23T05:14:45;9.60;99.90
41058;DHT22;66768;48.884;2.258;2023-02-23T05:17:12;9.50;99.90
41058;DHT22;66768;48.884;2.258;2023-02-23T05:19:39;9.60;99.90
41058;DHT22;66768;48.884;2.258;2023-02-23T05:22:06;9.60;99.90
41058;DHT22;66768;48.884;2.258;2023-02-23T05:24:37;9.60;99.90
41058;DHT22;66768;48.884;2.258;2023-02-23T05:27:05;9.60;99.90
41058;DHT22;66768;48.884;2.258;2023-02-23T05:29:32;9.60;99.90
41058;DHT22;66768;48.884;2.258;2023-02-23T05:31:59;9.50;99.90
41058;DHT22;66768;48.884;2.258;2023-02-23T05:34:26;9.60;99.90
41058;DHT22;66768;48.884;2.258;2023-02-23T05:36:53;9.60;99.90
41058;DHT22;66768;48.884;2.258;2023-02-23T05:39:20;9.60;99.90
41058;DHT22;66768;48.884;2.258;2023-02-23T05:41:47;9.60;99.90
41058;DHT22;66768;48.884;2.258;2023-02-23T05:44:15;9.60;99.90
41058;DHT22;66768;48.884;2.258;2023-02-23T05:46:44;9.60;99.90
41058;DHT22;66768;48.884;2.258;2023-02-23T05:49:14;9.60;99.90
41058;DHT22;66768;48.884;2.258;2023-02-23T05:51:41;9.60;99.90
41058;DHT22;66768;48.884;2.258;2023-02-23T05:54:08;9.60;99.90
41058;DHT22;66768;48.884;2.258;2023-02-23T05:56:35;9.50;99.90
41058;DHT22;66768;48.884;2.258;2023-02-23T05:59:02;9.50;99.90
41058;DHT22;66768;48.884;2.258;2023-02-23T06:01:32;9.40;99.90
41058;DHT22;66768;48.884;2.258;2023-02-23T06:03:59;9.40;99.90
41058;DHT22;66768;48.884;2.258;2023-02-23T06:06:26;9.40;99.90
41058;DHT22;66768;48.884;2.258;2023-02-23T06:08:55;9.50;99.90
41058;DHT22;66768;48.884;2.258;2023-02-23T06:11:22;9.50;99.90
41058;DHT22;66768;48.884;2.258;2023-02-23T06:13:49;9.50;99.90
41058;DHT22;66768;48.884;2.258;2023-02-23T06:16:16;9.50;99.90
41058;DHT22;66768;48.884;2.258;2023-02-23T06:18:45;9.50;99.90
41058;DHT22;66768;48.884;2.258;2023-02-23T06:21:12;9.50;99.90
41058;DHT22;66768;48.884;2.258;2023-02-23T06:23:39;9.60;99.90
41058;DHT22;66768;48.884;2.258;2023-02-23T06:26:06;9.70;99.90
41058;DHT22;66768;48.884;2.258;2023-02-23T06:28:33;9.60;99.90
41058;DHT22;66768;48.884;2.258;2023-02-23T06:31:01;9.50;99.90
41058;DHT22;66768;48.884;2.258;2023-02-23T06:33:28;9.60;99.90
41058;DHT22;66768;48.884;2.258;2023-02-23T06:35:56;9.50;99.90
41058;DHT22;66768;48.884;2.258;2023-02-23T06:38:23;9.60;99.90
41058;DHT22;66768;48.884;2.258;2023-02-23T06:40:50;9.50;99.90
41058;DHT22;66768;48.884;2.258;2023-02-23T06:43:17;9.50;99.90
41058;DHT22;66768;48.884;2.258;2023-02-23T06:45:45;9.50;99.90
41058;DHT22;66768;48.884;2.258;2023-02-23T06:48:12;9.50;99.90
41058;DHT22;66768;48.884;2.258;2023-02-23T06:50:39;9.50;99.90
41058;DHT22;66768;48.884;2.258;2023-02-23T06:53:07;9.50;99.90
41058;DHT22;66768;48.884;2.258;2023-02-23T06:55:34;9.40;99.90
41058;DHT22;66768;48.884;2.258;2023-02-23T06:58:01;9.40;99.90
41058;DHT22;66768;48.884;2.258;2023-02-23T07:00:29;9.40;99.90
41058;DHT22;66768;48.884;2.258;2023-02-23T07:02:56;9.40;99.90
41058;DHT22;66768;48.884;2.258;2023-02-23T07:05:24;9.40;99.90
41058;DHT22;66768;48.884;2.258;2023-02-23T07:07:51;9.40;99.90
41058;DHT22;66768;48.884;2.258;2023-02-23T07:10:20;9.40;99.90
41058;DHT22;66768;48.884;2.258;2023-02-23T07:12:47;9.40;99.90
41058;DHT22;66768;48.884;2.258;2023-02-23T07:15:14;9.30;99.90
41058;DHT22;66768;48.884;2.258;2023-02-23T07:17:42;9.40;99.90
41058;DHT22;66768;48.884;2.258;2023-02-23T07:20:11;9.30;99.90
41058;DHT22;66768;48.884;2.258;2023-02-23T07:22:38;9.30;99.90
41058;DHT22;66768;48.884;2.258;2023-02-23T07:25:06;9.40;99.90
41058;DHT22;66768;48.884;2.258;2023-02-23T07:27:35;9.40;99.90
41058;DHT22;66768;48.884;2.258;2023-02-23T07:30:02;9.40;99.90
41058;DHT22;66768;48.884;2.258;2023-02-23T07:32:29;9.40;99.90
41058;DHT22;66768;48.884;2.258;2023-02-23T07:34:56;9.50;99.90
41058;DHT22;66768;48.884;2.258;2023-02-23T07:37:23;9.50;99.90
41058;DHT22;66768;48.884;2.258;2023-02-23T07:39:50;9.60;99.90
41058;DHT22;66768;48.884;2.258;2023-02-23T07:42:16;9.60;99.90
41058;DHT22;66768;48.884;2.258;2023-02-23T07:44:45;9.50;99.90
41058;DHT22;66768;48.884;2.258;2023-02-23T07:47:12;9.60;99.90
41058;DHT22;66768;48.884;2.258;2023-02-23T07:49:38;9.60;99.90
41058;DHT22;66768;48.884;2.258;2023-02-23T07:52:05;9.60;99.90
41058;DHT22;66768;48.884;2.258;2023-02-23T07:54:32;9.70;99.90
41058;DHT22;66768;48.884;2.258;2023-02-23T07:56:59;9.70;99.90
41058;DHT22;66768;48.884;2.258;2023-02-23T07:59:26;9.70;99.90
41058;DHT22;66768;48.884;2.258;2023-02-23T08:01:54;9.80;99.90
41058;DHT22;66768;48.884;2.258;2023-02-23T08:04:21;9.80;99.90
41058;DHT22;66768;48.884;2.258;2023-02-23T08:06:48;9.80;99.90
41058;DHT22;66768;48.884;2.258;2023-02-23T08:09:15;9.80;99.90
41058;DHT22;66768;48.884;2.258;2023-02-23T08:11:42;9.80;99.90
41058;DHT22;66768;48.884;2.258;2023-02-23T08:14:09;9.90;99.90
41058;DHT22;66768;48.884;2.258;2023-02-23T08:16:37;9.90;99.90
41058;DHT22;66768;48.884;2.258;2023-02-23T08:19:05;9.80;99.90
41058;DHT22;66768;48.884;2.258;2023-02-23T08:21:32;9.80;99.90
41058;DHT22;66768;48.884;2.258;2023-02-23T08:23:59;9.70;99.90
41058;DHT22;66768;48.884;2.258;2023-02-23T08:26:26;9.70;99.90
41058;DHT22;66768;48.884;2.258;2023-02-23T08:28:54;9.60;99.90
41058;DHT22;66768;48.884;2.258;2023-02-23T08:31:21;9.60;99.90
41058;DHT22;66768;48.884;2.258;2023-02-23T08:33:49;9.60;99.90
41058;DHT22;66768;48.884;2.258;2023-02-23T08:36:18;9.70;99.90
41058;DHT22;66768;48.884;2.258;2023-02-23T08:38:45;9.70;99.90
41058;DHT22;66768;48.884;2.258;2023-02-23T08:41:12;9.70;99.90
41058;DHT22;66768;48.884;2.258;2023-02-23T08:43:39;9.70;99.90
41058;DHT22;66768;48.884;2.258;2023-02-23T08:46:07;9.80;99.90
41058;DHT22;66768;48.884;2.258;2023-02-23T08:48:35;9.80;99.90
41058;DHT22;66768;48.884;2.258;2023-02-23T08:51:05;9.80;99.90
41058;DHT22;66768;48.884;2.258;2023-02-23T08:53:34;9.90;99.90
41058;DHT22;66768;48.884;2.258;2023-02-23T08:56:03;9.90;99.90
41058;DHT22;66768;48.884;2.258;2023-02-23T08:58:31;9.80;99.90
41058;DHT22;66768;48.884;2.258;2023-02-23T09:00:58;9.90;99.90
41058;DHT22;66768;48.884;2.258;2023-02-23T09:03:26;9.90;99.90
41058;DHT22;66768;48.884;2.258;2023-02-23T09:05:55;9.90;99.90
41058;DHT22;66768;48.884;2.258;2023-02-23T09:08:22;9.80;99.90
41058;DHT22;66768;48.884;2.258;2023-02-23T09:10:51;9.90;99.90
41058;DHT22;66768;48.884;2.258;2023-02-23T09:13:18;10.00;99.90
41058;DHT22;66768;48.884;2.258;2023-02-23T09:15:45;10.00;99.90
41058;DHT22;66768;48.884;2.258;2023-02-23T09:18:13;10.10;99.90
41058;DHT22;66768;48.884;2.258;2023-02-23T09:20:40;10.10;99.90
41058;DHT22;66768;48.884;2.258;2023-02-23T09:23:08;10.20;99.90
41058;DHT22;66768;48.884;2.258;2023-02-23T09:25:38;10.20;99.90
41058;DHT22;66768;48.884;2.258;2023-02-23T09:28:10;10.20;99.90
41058;DHT22;66768;48.884;2.258;2023-02-23T09:30:38;10.20;99.90
41058;DHT22;66768;48.884;2.258;2023-02-23T09:33:06;10.10;99.90
41058;DHT22;66768;48.884;2.258;2023-02-23T09:35:33;10.10;99.90
41058;DHT22;66768;48.884;2.258;2023-02-23T09:38:03;10.20;99.90
41058;DHT22;66768;48.884;2.258;2023-02-23T09:40:35;10.20;99.90
41058;DHT22;66768;48.884;2.258;2023-02-23T09:43:05;10.10;99.90
41058;DHT22;66768;48.884;2.258;2023-02-23T09:45:39;10.10;99.90
41058;DHT22;66768;48.884;2.258;2023-02-23T09:48:15;10.10;99.90
41058;DHT22;66768;48.884;2.258;2023-02-23T09:50:46;10.00;99.90
41058;DHT22;66768;48.884;2.258;2023-02-23T09:53:29;10.00;99.90
41058;DHT22;66768;48.884;2.258;2023-02-23T09:55:58;10.10;99.90
41058;DHT22;66768;48.884;2.258;2023-02-23T09:58:26;10.00;99.90
41058;DHT22;66768;48.884;2.258;2023-02-23T10:04:03;10.10;99.90
41058;DHT22;66768;48.884;2.258;2023-02-23T10:06:33;10.10;99.90
41058;DHT22;66768;48.884;2.258;2023-02-23T10:09:09;10.10;99.90
41058;DHT22;66768;48.884;2.258;2023-02-23T10:11:44;10.20;99.90
41058;DHT22;66768;48.884;2.258;2023-02-23T10:14:35;10.20;99.90
41058;DHT22;66768;48.884;2.258;2023-02-23T10:17:14;10.20;99.90
41058;DHT22;66768;48.884;2.258;2023-02-23T10:19:49;10.10;99.90
41058;DHT22;66768;48.884;2.258;2023-02-23T10:22:22;10.20;99.90
41058;DHT22;66768;48.884;2.258;2023-02-23T10:24:53;10.20;99.90
41058;DHT22;66768;48.884;2.258;2023-02-23T10:27:25;10.20;99.90
41058;DHT22;66768;48.884;2.258;2023-02-23T10:29:55;10.20;99.90
41058;DHT22;66768;48.884;2.258;2023-02-23T10:32:28;10.20;99.90
41058;DHT22;66768;48.884;2.258;2023-02-23T10:34:59;10.30;99.90
41058;DHT22;66768;48.884;2.258;2023-02-23T10:37:27;10.20;99.90
41058;DHT22;66768;48.884;2.258;2023-02-23T10:39:54;10.20;99.90
41058;DHT22;66768;48.884;2.258;2023-02-23T10:42:22;10.20;99.90
41058;DHT22;66768;48.884;2.258;2023-02-23T10:44:53;10.20;99.90
41058;DHT22;66768;48.884;2.258;2023-02-23T10:47:22;10.20;99.90
41058;DHT22;66768;48.884;2.258;2023-02-23T10:49:52;10.20;99.90
41058;DHT22;66768;48.884;2.258;2023-02-23T10:52:26;10.30;99.90
41058;DHT22;66768;48.884;2.258;2023-02-23T10:54:55;10.30;99.90
41058;DHT22;66768;48.884;2.258;2023-02-23T10:57:26;10.40;99.90
41058;DHT22;66768;48.884;2.258;2023-02-23T11:00:23;10.40;99.90
41058;DHT22;66768;48.884;2.258;2023-02-23T11:02:55;10.40;99.90
41058;DHT22;66768;48.884;2.258;2023-02-23T11:05:33;10.30;99.90
41058;DHT22;66768;48.884;2.258;2023-02-23T11:08:23;10.40;99.90
41058;DHT22;66768;48.884;2.258;2023-02-23T11:10:58;10.30;99.90
41058;DHT22;66768;48.884;2.258;2023-02-23T11:13:27;10.30;99.90
41058;DHT22;66768;48.884;2.258;2023-02-23T11:15:59;10.40;99.90
41058;DHT22;66768;48.884;2.258;2023-02-23T11:18:28;10.30;99.90
41058;DHT22;66768;48.884;2.258;2023-02-23T11:20:55;10.30;99.90
41058;DHT22;66768;48.884;2.258;2023-02-23T11:23:25;10.20;99.90
41058;DHT22;66768;48.884;2.258;2023-02-23T11:25:55;10.30;99.90
41058;DHT22;66768;48.884;2.258;2023-02-23T11:28:28;10.40;99.90
41058;DHT22;66768;48.884;2.258;2023-02-23T11:30:57;10.50;99.90
41058;DHT22;66768;48.884;2.258;2023-02-23T11:33:29;10.60;99.90
41058;DHT22;66768;48.884;2.258;2023-02-23T11:36:14;10.60;99.90
41058;DHT22;66768;48.884;2.258;2023-02-23T11:38:44;10.70;99.90
41058;DHT22;66768;48.884;2.258;2023-02-23T11:41:22;10.70;99.90
41058;DHT22;66768;48.884;2.258;2023-02-23T11:43:50;10.70;99.90
41058;DHT22;66768;48.884;2.258;2023-02-23T11:46:20;10.70;99.90
41058;DHT22;66768;48.884;2.258;2023-02-23T11:48:50;10.70;99.90
41058;DHT22;66768;48.884;2.258;2023-02-23T11:51:23;10.70;99.90
41058;DHT22;66768;48.884;2.258;2023-02-23T11:53:52;10.70;99.90
41058;DHT22;66768;48.884;2.258;2023-02-23T11:56:20;10.80;99.90
41058;DHT22;66768;48.884;2.258;2023-02-23T11:58:51;10.80;99.90
41058;DHT22;66768;48.884;2.258;2023-02-23T12:01:22;10.90;99.90
41058;DHT22;66768;48.884;2.258;2023-02-23T12:03:59;10.80;99.90
41058;DHT22;66768;48.884;2.258;2023-02-23T12:06:29;10.70;99.90
41058;DHT22;66768;48.884;2.258;2023-02-23T12:09:03;10.80;99.90
41058;DHT22;66768;48.884;2.258;2023-02-23T12:11:36;10.80;99.90
41058;DHT22;66768;48.884;2.258;2023-02-23T12:14:10;10.80;99.90
41058;DHT22;66768;48.884;2.258;2023-02-23T12:16:39;10.80;99.90
41058;DHT22;66768;48.884;2.258;2023-02-23T12:19:19;10.90;99.90
41058;DHT22;66768;48.884;2.258;2023-02-23T12:21:51;11.00;99.90
41058;DHT22;66768;48.884;2.258;2023-02-23T12:24:31;11.00;99.90
41058;DHT22;66768;48.884;2.258;2023-02-23T12:27:08;11.00;99.90
41058;DHT22;66768;48.884;2.258;2023-02-23T12:29:44;11.10;99.90
41058;DHT22;66768;48.884;2.258;2023-02-23T12:32:17;11.20;99.90
41058;DHT22;66768;48.884;2.258;2023-02-23T12:34:50;11.20;99.90
41058;DHT22;66768;48.884;2.258;2023-02-23T12:37:29;11.10;99.90
41058;DHT22;66768;48.884;2.258;2023-02-23T12:40:10;11.00;99.90
41058;DHT22;66768;48.884;2.258;2023-02-23T12:42:44;11.00;99.90
41058;DHT22;66768;48.884;2.258;2023-02-23T12:45:17;11.10;99.90
41058;DHT22;66768;48.884;2.258;2023-02-23T12:47:50;11.20;99.90
41058;DHT22;66768;48.884;2.258;2023-02-23T12:50:24;11.20;99.90
41058;DHT22;66768;48.884;2.258;2023-02-23T12:52:55;11.20;99.90
41058;DHT22;66768;48.884;2.258;2023-02-23T12:55:31;11.30;99.90
41058;DHT22;66768;48.884;2.258;2023-02-23T12:58:05;11.20;99.90
41058;DHT22;66768;48.884;2.258;2023-02-23T13:00:44;11.20;99.90
41058;DHT22;66768;48.884;2.258;2023-02-23T13:06:10;11.40;99.90
41058;DHT22;66768;48.884;2.258;2023-02-23T13:08:55;11.30;99.90
41058;DHT22;66768;48.884;2.258;2023-02-23T13:11:40;11.40;99.90
41058;DHT22;66768;48.884;2.258;2023-02-23T13:14:12;11.40;99.90
41058;DHT22;66768;48.884;2.258;2023-02-23T13:16:43;11.40;99.90
41058;DHT22;66768;48.884;2.258;2023-02-23T13:19:14;11.40;99.90
41058;DHT22;66768;48.884;2.258;2023-02-23T13:21:50;11.40;99.90
41058;DHT22;66768;48.884;2.258;2023-02-23T13:24:22;11.40;99.90
41058;DHT22;66768;48.884;2.258;2023-02-23T13:26:56;11.50;99.90
41058;DHT22;66768;48.884;2.258;2023-02-23T13:29:30;11.50;99.90
41058;DHT22;66768;48.884;2.258;2023-02-23T13:31:59;11.50;99.90
41058;DHT22;66768;48.884;2.258;2023-02-23T13:34:28;11.60;99.90
41058;DHT22;66768;48.884;2.258;2023-02-23T13:36:58;11.60;99.90
41058;DHT22;66768;48.884;2.258;2023-02-23T13:39:46;11.70;99.90
41058;DHT22;66768;48.884;2.258;2023-02-23T13:48:14;11.70;99.90
41058;DHT22;66768;48.884;2.258;2023-02-23T13:50:50;11.70;99.90
41058;DHT22;66768;48.884;2.258;2023-02-23T13:53:32;11.70;99.90
41058;DHT22;66768;48.884;2.258;2023-02-23T13:56:03;11.70;99.90
41058;DHT22;66768;48.884;2.258;2023-02-23T13:58:34;11.70;99.90
41058;DHT22;66768;48.884;2.258;2023-02-23T14:01:05;11.70;99.90
41058;DHT22;66768;48.884;2.258;2023-02-23T14:03:40;11.70;99.90
41058;DHT22;66768;48.884;2.258;2023-02-23T14:06:14;11.70;99.90
41058;DHT22;66768;48.884;2.258;2023-02-23T14:08:44;11.70;99.90
41058;DHT22;66768;48.884;2.258;2023-02-23T14:11:27;11.70;99.90
41058;DHT22;66768;48.884;2.258;2023-02-23T14:14:01;11.70;99.90
41058;DHT22;66768;48.884;2.258;2023-02-23T14:16:28;11.60;99.90
41058;DHT22;66768;48.884;2.258;2023-02-23T14:19:13;11.70;99.90
41058;DHT22;66768;48.884;2.258;2023-02-23T14:21:59;11.70;99.90
41058;DHT22;66768;48.884;2.258;2023-02-23T14:24:28;11.60;99.90
41058;DHT22;66768;48.884;2.258;2023-02-23T14:27:19;11.70;99.90
41058;DHT22;66768;48.884;2.258;2023-02-23T14:30:11;11.70;99.90
41058;DHT22;66768;48.884;2.258;2023-02-23T14:32:39;11.70;99.90
41058;DHT22;66768;48.884;2.258;2023-02-23T14:35:41;11.70;99.90
41058;DHT22;66768;48.884;2.258;2023-02-23T14:38:14;11.70;99.90
41058;DHT22;66768;48.884;2.258;2023-02-23T14:40:42;11.60;99.90
41058;DHT22;66768;48.884;2.258;2023-02-23T14:43:39;11.70;99.90
41058;DHT22;66768;48.884;2.258;2023-02-23T14:46:12;11.70;99.90
41058;DHT22;66768;48.884;2.258;2023-02-23T14:48:44;11.60;99.90
41058;DHT22;66768;48.884;2.258;2023-02-23T14:51:31;11.60;99.90
41058;DHT22;66768;48.884;2.258;2023-02-23T14:53:59;11.60;99.90
41058;DHT22;66768;48.884;2.258;2023-02-23T14:56:27;11.50;99.90
41058;DHT22;66768;48.884;2.258;2023-02-23T14:58:54;11.60;99.90
41058;DHT22;66768;48.884;2.258;2023-02-23T15:01:33;11.50;99.90
41058;DHT22;66768;48.884;2.258;2023-02-23T15:04:08;11.50;99.90
41058;DHT22;66768;48.884;2.258;2023-02-23T15:06:37;11.50;99.90
41058;DHT22;66768;48.884;2.258;2023-02-23T15:09:06;11.50;99.90
41058;DHT22;66768;48.884;2.258;2023-02-23T15:11:34;11.50;99.90
41058;DHT22;66768;48.884;2.258;2023-02-23T15:14:02;11.50;99.90
41058;DHT22;66768;48.884;2.258;2023-02-23T15:16:31;11.60;99.90
41058;DHT22;66768;48.884;2.258;2023-02-23T15:19:00;11.60;99.90
41058;DHT22;66768;48.884;2.258;2023-02-23T15:21:29;11.50;99.90
41058;DHT22;66768;48.884;2.258;2023-02-23T15:24:06;11.50;99.90
41058;DHT22;66768;48.884;2.258;2023-02-23T15:26:37;11.60;99.90
41058;DHT22;66768;48.884;2.258;2023-02-23T15:29:07;11.60;99.90
41058;DHT22;66768;48.884;2.258;2023-02-23T15:31:38;11.60;99.90
41058;DHT22;66768;48.884;2.258;2023-02-23T15:34:15;11.60;99.90
41058;DHT22;66768;48.884;2.258;2023-02-23T15:36:45;11.70;99.90
41058;DHT22;66768;48.884;2.258;2023-02-23T15:39:17;11.60;99.90
41058;DHT22;66768;48.884;2.258;2023-02-23T15:41:45;11.60;99.90
41058;DHT22;66768;48.884;2.258;2023-02-23T15:44:17;11.60;99.90
41058;DHT22;66768;48.884;2.258;2023-02-23T15:46:50;11.60;99.90
41058;DHT22;66768;48.884;2.258;2023-02-23T15:49:18;11.70;99.90
41058;DHT22;66768;48.884;2.258;2023-02-23T15:51:48;11.70;99.90
41058;DHT22;66768;48.884;2.258;2023-02-23T15:54:21;11.70;99.90
41058;DHT22;66768;48.884;2.258;2023-02-23T15:56:54;11.70;99.90
41058;DHT22;66768;48.884;2.258;2023-02-23T15:59:26;11.60;99.90
41058;DHT22;66768;48.884;2.258;2023-02-23T16:01:53;11.70;99.90
41058;DHT22;66768;48.884;2.258;2023-02-23T16:04:26;11.60;99.90
41058;DHT22;66768;48.884;2.258;2023-02-23T16:07:06;11.60;99.90
41058;DHT22;66768;48.884;2.258;2023-02-23T16:09:45;11.60;99.90
41058;DHT22;66768;48.884;2.258;2023-02-23T16:12:15;11.60;99.90
41058;DHT22;66768;48.884;2.258;2023-02-23T16:14:45;11.60;99.90
41058;DHT22;66768;48.884;2.258;2023-02-23T16:17:20;11.60;99.90
41058;DHT22;66768;48.884;2.258;2023-02-23T16:19:50;11.60;99.90
41058;DHT22;66768;48.884;2.258;2023-02-23T16:22:21;11.60;99.90